Terminal Aerodrome Forecast
Issued by NWS Upton, NY

Home | Current Version | Previous Version | Text Only | Print | Product List | Glossary On
Versions: 1 2 3 4 5 6 7 8 9 10 11 12 13 14 15 16 17 18 19 20 21 22 23 24 25 26 27 28 29 30 31
000
FTUS41 KOKX 011936 AAA
TAFEWR
TAF AMD
KEWR 011936Z 0120/0224 27014G21KT P6SM SCT060 SCT100
     FM012300 30011KT P6SM FEW060
     FM020300 32005KT P6SM SKC
     FM020600 VRB04KT P6SM SKC
     FM021500 25006KT P6SM SCT250
     FM021800 22010KT P6SM SCT250
     FM022200 16011KT P6SM SCT250=

USA.gov is the U.S. government's official web portal to all federal, state and local government web resources and services.